sensor_id;sensor_type;location;lat;lon;timestamp;P1;durP1;ratioP1;P2;durP2;ratioP2
61590;SDS011;57639;52.410;-1.966;2023-06-26T00:01:11;1.88;;;0.90;;
61590;SDS011;57639;52.410;-1.966;2023-06-26T00:04:25;1.47;;;0.90;;
61590;SDS011;57639;52.410;-1.966;2023-06-26T00:07:38;1.90;;;0.82;;
61590;SDS011;57639;52.410;-1.966;2023-06-26T00:10:46;1.02;;;0.70;;
61590;SDS011;57639;52.410;-1.966;2023-06-26T00:14:08;2.60;;;0.88;;
61590;SDS011;57639;52.410;-1.966;2023-06-26T00:17:28;1.55;;;0.90;;
61590;SDS011;57639;52.410;-1.966;2023-06-26T00:20:39;2.20;;;0.80;;
61590;SDS011;57639;52.410;-1.966;2023-06-26T00:23:51;1.63;;;0.80;;
61590;SDS011;57639;52.410;-1.966;2023-06-26T00:30:08;2.33;;;0.80;;
61590;SDS011;57639;52.410;-1.966;2023-06-26T00:33:15;2.92;;;0.90;;
61590;SDS011;57639;52.410;-1.966;2023-06-26T00:36:22;2.65;;;0.85;;
61590;SDS011;57639;52.410;-1.966;2023-06-26T00:39:32;1.77;;;0.93;;
61590;SDS011;57639;52.410;-1.966;2023-06-26T00:42:43;1.75;;;0.90;;
61590;SDS011;57639;52.410;-1.966;2023-06-26T00:45:57;1.30;;;0.70;;
61590;SDS011;57639;52.410;-1.966;2023-06-26T00:49:11;2.42;;;0.80;;
61590;SDS011;57639;52.410;-1.966;2023-06-26T00:52:31;1.80;;;0.90;;
61590;SDS011;57639;52.410;-1.966;2023-06-26T00:55:59;1.00;;;0.77;;
61590;SDS011;57639;52.410;-1.966;2023-06-26T00:59:18;3.00;;;0.80;;
61590;SDS011;57639;52.410;-1.966;2023-06-26T01:02:34;1.50;;;0.77;;
61590;SDS011;57639;52.410;-1.966;2023-06-26T01:05:44;1.55;;;0.90;;
61590;SDS011;57639;52.410;-1.966;2023-06-26T01:09:07;1.55;;;0.80;;
61590;SDS011;57639;52.410;-1.966;2023-06-26T01:12:30;1.83;;;0.80;;
61590;SDS011;57639;52.410;-1.966;2023-06-26T01:15:48;2.50;;;0.80;;
61590;SDS011;57639;52.410;-1.966;2023-06-26T01:19:01;1.25;;;0.70;;
61590;SDS011;57639;52.410;-1.966;2023-06-26T01:22:20;2.50;;;0.90;;
61590;SDS011;57639;52.410;-1.966;2023-06-26T01:25:39;1.02;;;0.70;;
61590;SDS011;57639;52.410;-1.966;2023-06-26T01:29:06;2.83;;;0.98;;
61590;SDS011;57639;52.410;-1.966;2023-06-26T01:32:19;3.33;;;0.90;;
61590;SDS011;57639;52.410;-1.966;2023-06-26T01:35:28;1.60;;;0.93;;
61590;SDS011;57639;52.410;-1.966;2023-06-26T01:38:51;2.88;;;0.98;;
61590;SDS011;57639;52.410;-1.966;2023-06-26T01:41:59;2.13;;;0.90;;
61590;SDS011;57639;52.410;-1.966;2023-06-26T01:48:38;1.13;;;0.73;;
61590;SDS011;57639;52.410;-1.966;2023-06-26T01:52:01;1.17;;;0.70;;
61590;SDS011;57639;52.410;-1.966;2023-06-26T01:55:20;1.35;;;0.75;;
61590;SDS011;57639;52.410;-1.966;2023-06-26T01:58:52;1.85;;;1.00;;
61590;SDS011;57639;52.410;-1.966;2023-06-26T02:02:07;2.20;;;0.90;;
61590;SDS011;57639;52.410;-1.966;2023-06-26T02:05:36;1.30;;;0.80;;
61590;SDS011;57639;52.410;-1.966;2023-06-26T02:08:55;3.38;;;0.85;;
61590;SDS011;57639;52.410;-1.966;2023-06-26T02:12:10;1.73;;;1.08;;
61590;SDS011;57639;52.410;-1.966;2023-06-26T02:15:32;1.98;;;1.10;;
61590;SDS011;57639;52.410;-1.966;2023-06-26T02:19:01;1.58;;;1.13;;
61590;SDS011;57639;52.410;-1.966;2023-06-26T02:22:25;1.10;;;0.73;;
61590;SDS011;57639;52.410;-1.966;2023-06-26T02:25:49;1.67;;;0.80;;
61590;SDS011;57639;52.410;-1.966;2023-06-26T02:29:07;1.55;;;0.88;;
61590;SDS011;57639;52.410;-1.966;2023-06-26T02:32:35;3.20;;;0.98;;
61590;SDS011;57639;52.410;-1.966;2023-06-26T02:36:14;1.42;;;0.80;;
61590;SDS011;57639;52.410;-1.966;2023-06-26T02:39:28;1.35;;;0.80;;
61590;SDS011;57639;52.410;-1.966;2023-06-26T02:43:06;1.60;;;0.90;;
61590;SDS011;57639;52.410;-1.966;2023-06-26T02:46:35;1.25;;;0.80;;
61590;SDS011;57639;52.410;-1.966;2023-06-26T02:49:55;2.00;;;1.00;;
61590;SDS011;57639;52.410;-1.966;2023-06-26T02:53:11;1.58;;;1.00;;
61590;SDS011;57639;52.410;-1.966;2023-06-26T02:56:21;2.53;;;0.73;;
61590;SDS011;57639;52.410;-1.966;2023-06-26T02:59:34;2.25;;;0.88;;
61590;SDS011;57639;52.410;-1.966;2023-06-26T03:02:54;1.13;;;0.82;;
61590;SDS011;57639;52.410;-1.966;2023-06-26T03:06:09;1.10;;;0.70;;
61590;SDS011;57639;52.410;-1.966;2023-06-26T03:09:21;1.58;;;0.90;;
61590;SDS011;57639;52.410;-1.966;2023-06-26T03:12:29;1.25;;;0.90;;
61590;SDS011;57639;52.410;-1.966;2023-06-26T03:15:44;0.98;;;0.70;;
61590;SDS011;57639;52.410;-1.966;2023-06-26T03:18:56;2.33;;;1.13;;
61590;SDS011;57639;52.410;-1.966;2023-06-26T03:22:21;1.05;;;0.80;;
61590;SDS011;57639;52.410;-1.966;2023-06-26T03:25:34;2.17;;;0.90;;
61590;SDS011;57639;52.410;-1.966;2023-06-26T03:28:46;2.00;;;0.90;;
61590;SDS011;57639;52.410;-1.966;2023-06-26T03:31:56;1.60;;;0.90;;
61590;SDS011;57639;52.410;-1.966;2023-06-26T03:35:28;1.23;;;0.90;;
61590;SDS011;57639;52.410;-1.966;2023-06-26T03:38:57;1.70;;;0.90;;
61590;SDS011;57639;52.410;-1.966;2023-06-26T03:42:45;1.60;;;1.02;;
61590;SDS011;57639;52.410;-1.966;2023-06-26T03:45:59;1.50;;;1.00;;
61590;SDS011;57639;52.410;-1.966;2023-06-26T03:49:08;1.67;;;0.80;;
61590;SDS011;57639;52.410;-1.966;2023-06-26T03:52:30;1.35;;;0.77;;
61590;SDS011;57639;52.410;-1.966;2023-06-26T03:56:24;2.45;;;1.00;;
61590;SDS011;57639;52.410;-1.966;2023-06-26T03:59:40;1.55;;;0.90;;
61590;SDS011;57639;52.410;-1.966;2023-06-26T04:03:05;1.27;;;0.80;;
61590;SDS011;57639;52.410;-1.966;2023-06-26T04:06:33;1.83;;;0.80;;
61590;SDS011;57639;52.410;-1.966;2023-06-26T04:10:01;1.45;;;0.82;;
61590;SDS011;57639;52.410;-1.966;2023-06-26T04:13:39;1.48;;;0.82;;
61590;SDS011;57639;52.410;-1.966;2023-06-26T04:17:13;1.70;;;0.95;;
61590;SDS011;57639;52.410;-1.966;2023-06-26T04:20:43;1.40;;;0.90;;
61590;SDS011;57639;52.410;-1.966;2023-06-26T04:24:26;1.23;;;0.80;;
61590;SDS011;57639;52.410;-1.966;2023-06-26T04:27:43;1.67;;;0.98;;
61590;SDS011;57639;52.410;-1.966;2023-06-26T04:31:09;1.65;;;0.90;;
61590;SDS011;57639;52.410;-1.966;2023-06-26T04:34:31;1.67;;;0.85;;
61590;SDS011;57639;52.410;-1.966;2023-06-26T04:37:56;1.10;;;0.63;;
61590;SDS011;57639;52.410;-1.966;2023-06-26T04:41:08;1.50;;;0.80;;
61590;SDS011;57639;52.410;-1.966;2023-06-26T04:44:44;1.42;;;0.98;;
61590;SDS011;57639;52.410;-1.966;2023-06-26T04:47:55;2.78;;;1.00;;
61590;SDS011;57639;52.410;-1.966;2023-06-26T04:51:09;2.00;;;1.10;;
61590;SDS011;57639;52.410;-1.966;2023-06-26T04:54:24;1.63;;;0.93;;
61590;SDS011;57639;52.410;-1.966;2023-06-26T04:57:36;2.25;;;1.20;;
61590;SDS011;57639;52.410;-1.966;2023-06-26T05:00:52;1.98;;;0.80;;
61590;SDS011;57639;52.410;-1.966;2023-06-26T05:04:05;1.75;;;1.00;;
61590;SDS011;57639;52.410;-1.966;2023-06-26T05:07:24;1.55;;;0.77;;
61590;SDS011;57639;52.410;-1.966;2023-06-26T05:10:48;2.13;;;0.90;;
61590;SDS011;57639;52.410;-1.966;2023-06-26T05:14:09;2.33;;;0.80;;
61590;SDS011;57639;52.410;-1.966;2023-06-26T05:17:27;1.63;;;0.80;;
61590;SDS011;57639;52.410;-1.966;2023-06-26T05:20:40;2.08;;;0.80;;
61590;SDS011;57639;52.410;-1.966;2023-06-26T05:23:57;1.70;;;0.90;;
61590;SDS011;57639;52.410;-1.966;2023-06-26T05:27:07;1.83;;;0.85;;
61590;SDS011;57639;52.410;-1.966;2023-06-26T05:30:29;1.58;;;0.90;;
61590;SDS011;57639;52.410;-1.966;2023-06-26T05:36:51;1.25;;;0.80;;
61590;SDS011;57639;52.410;-1.966;2023-06-26T05:40:05;1.73;;;0.70;;
61590;SDS011;57639;52.410;-1.966;2023-06-26T05:43:15;1.58;;;0.98;;
61590;SDS011;57639;52.410;-1.966;2023-06-26T05:46:24;2.72;;;1.05;;
61590;SDS011;57639;52.410;-1.966;2023-06-26T05:49:31;2.42;;;0.90;;
61590;SDS011;57639;52.410;-1.966;2023-06-26T05:52:41;1.70;;;0.90;;
61590;SDS011;57639;52.410;-1.966;2023-06-26T05:55:56;1.30;;;0.82;;
61590;SDS011;57639;52.410;-1.966;2023-06-26T05:59:03;1.23;;;0.70;;
61590;SDS011;57639;52.410;-1.966;2023-06-26T06:02:12;1.80;;;0.80;;
61590;SDS011;57639;52.410;-1.966;2023-06-26T06:05:23;2.03;;;0.70;;
61590;SDS011;57639;52.410;-1.966;2023-06-26T06:08:32;1.57;;;0.80;;
61590;SDS011;57639;52.410;-1.966;2023-06-26T06:11:52;1.92;;;0.90;;
61590;SDS011;57639;52.410;-1.966;2023-06-26T06:14:59;1.25;;;0.70;;
61590;SDS011;57639;52.410;-1.966;2023-06-26T06:18:13;2.63;;;0.90;;
61590;SDS011;57639;52.410;-1.966;2023-06-26T06:21:19;1.90;;;0.80;;
61590;SDS011;57639;52.410;-1.966;2023-06-26T06:24:26;1.65;;;0.85;;
61590;SDS011;57639;52.410;-1.966;2023-06-26T06:27:35;1.50;;;0.90;;
61590;SDS011;57639;52.410;-1.966;2023-06-26T06:30:42;1.88;;;0.80;;
61590;SDS011;57639;52.410;-1.966;2023-06-26T06:33:52;2.00;;;1.00;;
61590;SDS011;57639;52.410;-1.966;2023-06-26T06:36:59;1.95;;;0.88;;
61590;SDS011;57639;52.410;-1.966;2023-06-26T06:40:08;1.63;;;0.80;;
61590;SDS011;57639;52.410;-1.966;2023-06-26T06:43:28;1.92;;;0.90;;
61590;SDS011;57639;52.410;-1.966;2023-06-26T06:46:37;1.98;;;0.80;;
61590;SDS011;57639;52.410;-1.966;2023-06-26T06:49:49;3.42;;;0.93;;
61590;SDS011;57639;52.410;-1.966;2023-06-26T06:52:56;1.33;;;0.80;;
61590;SDS011;57639;52.410;-1.966;2023-06-26T06:56:04;2.78;;;1.00;;
61590;SDS011;57639;52.410;-1.966;2023-06-26T06:59:14;1.77;;;0.77;;
61590;SDS011;57639;52.410;-1.966;2023-06-26T07:02:26;2.33;;;0.95;;
61590;SDS011;57639;52.410;-1.966;2023-06-26T07:05:34;2.03;;;1.05;;
61590;SDS011;57639;52.410;-1.966;2023-06-26T07:08:42;3.08;;;1.42;;
61590;SDS011;57639;52.410;-1.966;2023-06-26T07:11:48;3.22;;;0.88;;
61590;SDS011;57639;52.410;-1.966;2023-06-26T07:15:01;2.03;;;0.70;;
61590;SDS011;57639;52.410;-1.966;2023-06-26T07:18:15;1.60;;;0.88;;
61590;SDS011;57639;52.410;-1.966;2023-06-26T07:21:24;2.70;;;0.90;;
61590;SDS011;57639;52.410;-1.966;2023-06-26T07:24:32;2.97;;;0.90;;
61590;SDS011;57639;52.410;-1.966;2023-06-26T07:27:43;4.05;;;0.90;;
61590;SDS011;57639;52.410;-1.966;2023-06-26T07:30:52;3.13;;;1.00;;
61590;SDS011;57639;52.410;-1.966;2023-06-26T07:34:01;3.58;;;1.00;;
61590;SDS011;57639;52.410;-1.966;2023-06-26T07:37:07;1.90;;;1.00;;
61590;SDS011;57639;52.410;-1.966;2023-06-26T07:40:34;2.00;;;0.90;;
61590;SDS011;57639;52.410;-1.966;2023-06-26T07:43:41;1.52;;;0.90;;
61590;SDS011;57639;52.410;-1.966;2023-06-26T07:46:50;2.55;;;0.80;;
61590;SDS011;57639;52.410;-1.966;2023-06-26T07:49:56;4.20;;;1.00;;
61590;SDS011;57639;52.410;-1.966;2023-06-26T07:53:02;1.92;;;0.80;;
61590;SDS011;57639;52.410;-1.966;2023-06-26T07:56:09;2.55;;;1.00;;
61590;SDS011;57639;52.410;-1.966;2023-06-26T07:59:17;3.22;;;0.90;;
61590;SDS011;57639;52.410;-1.966;2023-06-26T08:02:26;1.92;;;0.90;;
61590;SDS011;57639;52.410;-1.966;2023-06-26T08:05:33;3.63;;;1.13;;
61590;SDS011;57639;52.410;-1.966;2023-06-26T08:08:41;1.95;;;1.00;;
61590;SDS011;57639;52.410;-1.966;2023-06-26T08:11:47;2.70;;;1.00;;
61590;SDS011;57639;52.410;-1.966;2023-06-26T08:14:56;2.17;;;0.97;;
61590;SDS011;57639;52.410;-1.966;2023-06-26T08:18:08;1.55;;;0.70;;
61590;SDS011;57639;52.410;-1.966;2023-06-26T08:21:15;3.15;;;1.20;;
61590;SDS011;57639;52.410;-1.966;2023-06-26T08:24:21;3.13;;;1.10;;
61590;SDS011;57639;52.410;-1.966;2023-06-26T08:27:27;2.03;;;1.00;;
61590;SDS011;57639;52.410;-1.966;2023-06-26T08:30:34;2.45;;;1.10;;
61590;SDS011;57639;52.410;-1.966;2023-06-26T08:33:43;3.08;;;1.17;;
61590;SDS011;57639;52.410;-1.966;2023-06-26T08:36:49;4.72;;;1.00;;
61590;SDS011;57639;52.410;-1.966;2023-06-26T08:39:56;1.90;;;1.00;;
61590;SDS011;57639;52.410;-1.966;2023-06-26T08:43:02;3.13;;;1.10;;
61590;SDS011;57639;52.410;-1.966;2023-06-26T08:46:08;2.50;;;0.85;;
61590;SDS011;57639;52.410;-1.966;2023-06-26T08:49:18;2.85;;;1.05;;
61590;SDS011;57639;52.410;-1.966;2023-06-26T08:52:29;1.90;;;1.10;;
61590;SDS011;57639;52.410;-1.966;2023-06-26T08:55:40;2.25;;;0.95;;
61590;SDS011;57639;52.410;-1.966;2023-06-26T08:58:48;3.72;;;1.00;;
61590;SDS011;57639;52.410;-1.966;2023-06-26T09:01:55;5.10;;;1.30;;
61590;SDS011;57639;52.410;-1.966;2023-06-26T09:05:04;4.75;;;1.10;;
61590;SDS011;57639;52.410;-1.966;2023-06-26T09:11:18;5.15;;;1.27;;
61590;SDS011;57639;52.410;-1.966;2023-06-26T09:14:25;6.93;;;1.50;;
61590;SDS011;57639;52.410;-1.966;2023-06-26T09:17:33;4.95;;;1.20;;
61590;SDS011;57639;52.410;-1.966;2023-06-26T09:20:46;2.70;;;1.08;;
61590;SDS011;57639;52.410;-1.966;2023-06-26T09:23:53;2.85;;;1.02;;
61590;SDS011;57639;52.410;-1.966;2023-06-26T09:27:00;5.35;;;1.30;;
61590;SDS011;57639;52.410;-1.966;2023-06-26T09:30:07;4.95;;;1.17;;
61590;SDS011;57639;52.410;-1.966;2023-06-26T09:33:14;3.05;;;1.30;;
61590;SDS011;57639;52.410;-1.966;2023-06-26T09:36:26;3.38;;;1.33;;
61590;SDS011;57639;52.410;-1.966;2023-06-26T09:39:38;6.03;;;1.10;;
61590;SDS011;57639;52.410;-1.966;2023-06-26T09:42:44;4.95;;;1.30;;
61590;SDS011;57639;52.410;-1.966;2023-06-26T09:45:50;3.85;;;1.13;;
61590;SDS011;57639;52.410;-1.966;2023-06-26T09:48:58;2.70;;;1.23;;
61590;SDS011;57639;52.410;-1.966;2023-06-26T09:52:08;3.65;;;1.20;;
61590;SDS011;57639;52.410;-1.966;2023-06-26T09:55:14;3.47;;;1.25;;
61590;SDS011;57639;52.410;-1.966;2023-06-26T09:58:21;2.97;;;1.10;;
61590;SDS011;57639;52.410;-1.966;2023-06-26T10:01:30;4.37;;;1.10;;
61590;SDS011;57639;52.410;-1.966;2023-06-26T10:04:37;2.85;;;1.15;;
61590;SDS011;57639;52.410;-1.966;2023-06-26T10:07:46;3.03;;;1.10;;
61590;SDS011;57639;52.410;-1.966;2023-06-26T10:14:00;5.78;;;1.30;;
61590;SDS011;57639;52.410;-1.966;2023-06-26T10:17:10;3.40;;;1.30;;
61590;SDS011;57639;52.410;-1.966;2023-06-26T10:20:17;4.57;;;1.30;;
61590;SDS011;57639;52.410;-1.966;2023-06-26T10:23:26;3.10;;;1.33;;
61590;SDS011;57639;52.410;-1.966;2023-06-26T10:26:38;5.10;;;1.30;;
61590;SDS011;57639;52.410;-1.966;2023-06-26T10:30:02;4.22;;;1.40;;
61590;SDS011;57639;52.410;-1.966;2023-06-26T10:33:12;4.13;;;1.38;;
61590;SDS011;57639;52.410;-1.966;2023-06-26T10:36:19;3.30;;;1.20;;
61590;SDS011;57639;52.410;-1.966;2023-06-26T10:39:50;4.63;;;1.05;;
61590;SDS011;57639;52.410;-1.966;2023-06-26T10:43:07;2.70;;;1.08;;
61590;SDS011;57639;52.410;-1.966;2023-06-26T10:46:14;5.43;;;1.20;;
61590;SDS011;57639;52.410;-1.966;2023-06-26T10:49:24;3.22;;;1.20;;
61590;SDS011;57639;52.410;-1.966;2023-06-26T10:52:36;4.72;;;1.38;;
61590;SDS011;57639;52.410;-1.966;2023-06-26T10:55:47;6.40;;;1.35;;
61590;SDS011;57639;52.410;-1.966;2023-06-26T10:58:56;5.13;;;1.63;;
61590;SDS011;57639;52.410;-1.966;2023-06-26T11:02:18;3.55;;;1.10;;
61590;SDS011;57639;52.410;-1.966;2023-06-26T11:05:25;3.40;;;1.02;;
61590;SDS011;57639;52.410;-1.966;2023-06-26T11:08:43;5.28;;;1.35;;
61590;SDS011;57639;52.410;-1.966;2023-06-26T11:11:59;6.72;;;1.40;;
61590;SDS011;57639;52.410;-1.966;2023-06-26T11:15:12;3.30;;;1.30;;
61590;SDS011;57639;52.410;-1.966;2023-06-26T11:18:19;5.60;;;1.23;;
61590;SDS011;57639;52.410;-1.966;2023-06-26T11:21:26;4.63;;;1.40;;
61590;SDS011;57639;52.410;-1.966;2023-06-26T11:24:33;3.60;;;1.38;;
61590;SDS011;57639;52.410;-1.966;2023-06-26T11:27:45;4.63;;;1.60;;
61590;SDS011;57639;52.410;-1.966;2023-06-26T11:30:52;2.75;;;1.20;;
61590;SDS011;57639;52.410;-1.966;2023-06-26T11:33:59;4.07;;;1.23;;
61590;SDS011;57639;52.410;-1.966;2023-06-26T11:37:06;5.20;;;1.50;;
61590;SDS011;57639;52.410;-1.966;2023-06-26T11:40:17;2.85;;;1.05;;
61590;SDS011;57639;52.410;-1.966;2023-06-26T11:43:27;3.72;;;1.20;;
61590;SDS011;57639;52.410;-1.966;2023-06-26T11:46:34;3.63;;;1.27;;
61590;SDS011;57639;52.410;-1.966;2023-06-26T11:49:41;4.88;;;1.23;;
61590;SDS011;57639;52.410;-1.966;2023-06-26T11:52:52;4.32;;;1.30;;
61590;SDS011;57639;52.410;-1.966;2023-06-26T11:56:00;2.92;;;1.10;;
61590;SDS011;57639;52.410;-1.966;2023-06-26T11:59:16;3.17;;;1.20;;
61590;SDS011;57639;52.410;-1.966;2023-06-26T12:02:25;2.03;;;1.00;;
61590;SDS011;57639;52.410;-1.966;2023-06-26T12:05:31;2.97;;;1.17;;
61590;SDS011;57639;52.410;-1.966;2023-06-26T12:08:38;2.97;;;1.00;;
61590;SDS011;57639;52.410;-1.966;2023-06-26T12:11:45;2.72;;;1.08;;
61590;SDS011;57639;52.410;-1.966;2023-06-26T12:14:56;2.73;;;1.00;;
61590;SDS011;57639;52.410;-1.966;2023-06-26T12:18:09;2.80;;;1.00;;
61590;SDS011;57639;52.410;-1.966;2023-06-26T12:21:28;2.42;;;1.00;;
61590;SDS011;57639;52.410;-1.966;2023-06-26T12:24:37;2.55;;;0.90;;
61590;SDS011;57639;52.410;-1.966;2023-06-26T12:27:45;3.13;;;1.00;;
61590;SDS011;57639;52.410;-1.966;2023-06-26T12:34:26;3.38;;;1.05;;
61590;SDS011;57639;52.410;-1.966;2023-06-26T12:37:36;2.10;;;0.90;;
61590;SDS011;57639;52.410;-1.966;2023-06-26T12:40:46;3.30;;;1.20;;
61590;SDS011;57639;52.410;-1.966;2023-06-26T12:43:55;2.35;;;0.80;;
61590;SDS011;57639;52.410;-1.966;2023-06-26T12:47:04;2.75;;;0.93;;
61590;SDS011;57639;52.410;-1.966;2023-06-26T12:53:19;3.05;;;0.80;;
61590;SDS011;57639;52.410;-1.966;2023-06-26T12:56:25;3.65;;;0.82;;
61590;SDS011;57639;52.410;-1.966;2023-06-26T12:59:32;2.90;;;1.10;;
61590;SDS011;57639;52.410;-1.966;2023-06-26T13:02:41;2.47;;;0.88;;
61590;SDS011;57639;52.410;-1.966;2023-06-26T13:05:48;1.58;;;0.80;;
61590;SDS011;57639;52.410;-1.966;2023-06-26T13:08:54;3.15;;;1.02;;
61590;SDS011;57639;52.410;-1.966;2023-06-26T13:12:00;2.55;;;0.90;;
61590;SDS011;57639;52.410;-1.966;2023-06-26T13:15:08;2.53;;;0.88;;
61590;SDS011;57639;52.410;-1.966;2023-06-26T13:18:20;3.53;;;1.00;;
61590;SDS011;57639;52.410;-1.966;2023-06-26T13:21:27;2.55;;;0.90;;
61590;SDS011;57639;52.410;-1.966;2023-06-26T13:24:33;2.33;;;1.00;;
61590;SDS011;57639;52.410;-1.966;2023-06-26T13:27:40;2.63;;;0.90;;
61590;SDS011;57639;52.410;-1.966;2023-06-26T13:30:46;2.20;;;0.85;;
61590;SDS011;57639;52.410;-1.966;2023-06-26T13:33:56;1.83;;;0.95;;
61590;SDS011;57639;52.410;-1.966;2023-06-26T13:40:09;2.13;;;0.80;;
61590;SDS011;57639;52.410;-1.966;2023-06-26T13:43:18;3.13;;;0.75;;
61590;SDS011;57639;52.410;-1.966;2023-06-26T13:46:27;2.67;;;1.00;;
61590;SDS011;57639;52.410;-1.966;2023-06-26T13:49:36;2.50;;;0.98;;
61590;SDS011;57639;52.410;-1.966;2023-06-26T13:52:45;4.00;;;0.80;;
61590;SDS011;57639;52.410;-1.966;2023-06-26T13:55:51;3.50;;;1.00;;
61590;SDS011;57639;52.410;-1.966;2023-06-26T13:58:57;2.35;;;0.80;;
61590;SDS011;57639;52.410;-1.966;2023-06-26T14:02:05;2.25;;;0.80;;
61590;SDS011;57639;52.410;-1.966;2023-06-26T14:05:15;2.35;;;0.75;;
61590;SDS011;57639;52.410;-1.966;2023-06-26T14:11:28;2.85;;;1.00;;
61590;SDS011;57639;52.410;-1.966;2023-06-26T14:14:34;2.85;;;0.70;;
61590;SDS011;57639;52.410;-1.966;2023-06-26T14:17:41;1.75;;;0.98;;
61590;SDS011;57639;52.410;-1.966;2023-06-26T14:20:50;1.17;;;0.70;;
61590;SDS011;57639;52.410;-1.966;2023-06-26T14:23:56;2.10;;;0.80;;
61590;SDS011;57639;52.410;-1.966;2023-06-26T14:27:03;1.85;;;0.70;;
61590;SDS011;57639;52.410;-1.966;2023-06-26T14:30:10;2.50;;;0.90;;
61590;SDS011;57639;52.410;-1.966;2023-06-26T14:33:17;2.72;;;0.70;;
61590;SDS011;57639;52.410;-1.966;2023-06-26T14:36:26;1.35;;;0.60;;
61590;SDS011;57639;52.410;-1.966;2023-06-26T14:39:33;3.53;;;0.80;;
61590;SDS011;57639;52.410;-1.966;2023-06-26T14:42:40;2.50;;;0.80;;
61590;SDS011;57639;52.410;-1.966;2023-06-26T14:45:48;2.20;;;0.85;;
61590;SDS011;57639;52.410;-1.966;2023-06-26T14:48:55;1.45;;;0.95;;
61590;SDS011;57639;52.410;-1.966;2023-06-26T14:52:04;1.58;;;0.70;;
61590;SDS011;57639;52.410;-1.966;2023-06-26T14:55:11;1.27;;;0.70;;
61590;SDS011;57639;52.410;-1.966;2023-06-26T14:58:17;2.30;;;0.60;;
61590;SDS011;57639;52.410;-1.966;2023-06-26T15:01:23;2.47;;;0.80;;
61590;SDS011;57639;52.410;-1.966;2023-06-26T15:04:31;1.67;;;0.60;;
61590;SDS011;57639;52.410;-1.966;2023-06-26T15:07:40;2.67;;;0.65;;
61590;SDS011;57639;52.410;-1.966;2023-06-26T15:10:47;1.75;;;0.63;;
61590;SDS011;57639;52.410;-1.966;2023-06-26T15:13:53;1.38;;;0.60;;
61590;SDS011;57639;52.410;-1.966;2023-06-26T15:17:00;2.08;;;0.55;;
61590;SDS011;57639;52.410;-1.966;2023-06-26T15:20:07;2.55;;;0.77;;
61590;SDS011;57639;52.410;-1.966;2023-06-26T15:23:16;1.65;;;0.50;;
61590;SDS011;57639;52.410;-1.966;2023-06-26T15:26:23;2.10;;;0.80;;
61590;SDS011;57639;52.410;-1.966;2023-06-26T15:29:29;1.67;;;0.70;;
61590;SDS011;57639;52.410;-1.966;2023-06-26T15:32:35;1.30;;;0.77;;
61590;SDS011;57639;52.410;-1.966;2023-06-26T15:35:41;1.15;;;0.57;;
61590;SDS011;57639;52.410;-1.966;2023-06-26T15:38:50;1.27;;;0.60;;
61590;SDS011;57639;52.410;-1.966;2023-06-26T15:41:57;2.30;;;0.80;;
61590;SDS011;57639;52.410;-1.966;2023-06-26T15:45:05;1.27;;;0.60;;
61590;SDS011;57639;52.410;-1.966;2023-06-26T15:48:12;1.77;;;0.50;;
61590;SDS011;57639;52.410;-1.966;2023-06-26T15:51:18;1.40;;;0.60;;
61590;SDS011;57639;52.410;-1.966;2023-06-26T15:54:32;2.35;;;0.75;;
61590;SDS011;57639;52.410;-1.966;2023-06-26T15:57:38;3.13;;;0.90;;
61590;SDS011;57639;52.410;-1.966;2023-06-26T16:00:44;1.88;;;0.88;;
61590;SDS011;57639;52.410;-1.966;2023-06-26T16:03:51;1.98;;;0.70;;
61590;SDS011;57639;52.410;-1.966;2023-06-26T16:06:57;2.75;;;1.00;;
61590;SDS011;57639;52.410;-1.966;2023-06-26T16:10:07;2.83;;;0.80;;
61590;SDS011;57639;52.410;-1.966;2023-06-26T16:13:16;1.63;;;0.57;;
61590;SDS011;57639;52.410;-1.966;2023-06-26T16:16:24;1.23;;;0.68;;
61590;SDS011;57639;52.410;-1.966;2023-06-26T16:19:32;2.03;;;0.70;;
61590;SDS011;57639;52.410;-1.966;2023-06-26T16:22:39;1.42;;;0.60;;
61590;SDS011;57639;52.410;-1.966;2023-06-26T16:25:48;2.33;;;0.80;;
61590;SDS011;57639;52.410;-1.966;2023-06-26T16:28:54;1.45;;;0.80;;
61590;SDS011;57639;52.410;-1.966;2023-06-26T16:32:06;1.85;;;0.70;;
61590;SDS011;57639;52.410;-1.966;2023-06-26T16:35:16;1.95;;;0.70;;
61590;SDS011;57639;52.410;-1.966;2023-06-26T16:38:24;1.95;;;0.68;;
61590;SDS011;57639;52.410;-1.966;2023-06-26T16:41:33;2.45;;;0.73;;
61590;SDS011;57639;52.410;-1.966;2023-06-26T16:44:40;1.27;;;0.60;;
61590;SDS011;57639;52.410;-1.966;2023-06-26T16:47:46;1.70;;;0.60;;
61590;SDS011;57639;52.410;-1.966;2023-06-26T16:50:52;1.63;;;0.60;;
61590;SDS011;57639;52.410;-1.966;2023-06-26T16:53:59;1.80;;;0.70;;
61590;SDS011;57639;52.410;-1.966;2023-06-26T16:57:09;1.75;;;0.77;;
61590;SDS011;57639;52.410;-1.966;2023-06-26T17:00:15;2.63;;;0.77;;
61590;SDS011;57639;52.410;-1.966;2023-06-26T17:03:22;2.65;;;0.60;;
61590;SDS011;57639;52.410;-1.966;2023-06-26T17:06:31;1.00;;;0.60;;
61590;SDS011;57639;52.410;-1.966;2023-06-26T17:09:37;1.42;;;0.63;;
61590;SDS011;57639;52.410;-1.966;2023-06-26T17:12:46;1.30;;;0.70;;
61590;SDS011;57639;52.410;-1.966;2023-06-26T17:15:53;1.73;;;0.63;;
61590;SDS011;57639;52.410;-1.966;2023-06-26T17:18:59;2.83;;;0.77;;
61590;SDS011;57639;52.410;-1.966;2023-06-26T17:22:06;1.33;;;0.60;;
61590;SDS011;57639;52.410;-1.966;2023-06-26T17:25:12;2.42;;;0.77;;
61590;SDS011;57639;52.410;-1.966;2023-06-26T17:28:21;2.72;;;0.63;;
61590;SDS011;57639;52.410;-1.966;2023-06-26T17:31:28;1.23;;;0.55;;
61590;SDS011;57639;52.410;-1.966;2023-06-26T17:34:36;1.73;;;0.60;;
61590;SDS011;57639;52.410;-1.966;2023-06-26T17:37:42;2.63;;;0.70;;
61590;SDS011;57639;52.410;-1.966;2023-06-26T17:40:49;2.10;;;0.55;;
61590;SDS011;57639;52.410;-1.966;2023-06-26T17:43:58;1.08;;;0.50;;
61590;SDS011;57639;52.410;-1.966;2023-06-26T17:47:07;1.15;;;0.60;;
61590;SDS011;57639;52.410;-1.966;2023-06-26T17:50:14;1.33;;;0.50;;
61590;SDS011;57639;52.410;-1.966;2023-06-26T17:53:20;1.08;;;0.70;;
61590;SDS011;57639;52.410;-1.966;2023-06-26T17:56:26;1.25;;;0.50;;
61590;SDS011;57639;52.410;-1.966;2023-06-26T17:59:36;2.03;;;0.70;;
61590;SDS011;57639;52.410;-1.966;2023-06-26T18:02:42;1.30;;;0.70;;
61590;SDS011;57639;52.410;-1.966;2023-06-26T18:05:48;1.58;;;0.60;;
61590;SDS011;57639;52.410;-1.966;2023-06-26T18:08:55;1.02;;;0.50;;
61590;SDS011;57639;52.410;-1.966;2023-06-26T18:12:01;1.35;;;0.55;;
61590;SDS011;57639;52.410;-1.966;2023-06-26T18:15:11;2.00;;;0.60;;
61590;SDS011;57639;52.410;-1.966;2023-06-26T18:18:17;3.22;;;0.73;;
61590;SDS011;57639;52.410;-1.966;2023-06-26T18:21:24;3.03;;;0.77;;
61590;SDS011;57639;52.410;-1.966;2023-06-26T18:24:31;2.38;;;1.00;;
61590;SDS011;57639;52.410;-1.966;2023-06-26T18:27:39;5.95;;;4.07;;
61590;SDS011;57639;52.410;-1.966;2023-06-26T18:30:50;8.48;;;5.68;;
61590;SDS011;57639;52.410;-1.966;2023-06-26T18:33:56;9.10;;;6.35;;
61590;SDS011;57639;52.410;-1.966;2023-06-26T18:37:03;12.18;;;5.70;;
61590;SDS011;57639;52.410;-1.966;2023-06-26T18:40:10;17.10;;;8.63;;
61590;SDS011;57639;52.410;-1.966;2023-06-26T18:43:19;17.20;;;8.93;;
61590;SDS011;57639;52.410;-1.966;2023-06-26T18:46:29;18.63;;;9.55;;
61590;SDS011;57639;52.410;-1.966;2023-06-26T18:49:36;16.33;;;8.85;;
61590;SDS011;57639;52.410;-1.966;2023-06-26T18:52:42;14.85;;;7.45;;
61590;SDS011;57639;52.410;-1.966;2023-06-26T18:55:55;12.50;;;6.00;;
61590;SDS011;57639;52.410;-1.966;2023-06-26T18:59:01;10.45;;;5.28;;
61590;SDS011;57639;52.410;-1.966;2023-06-26T19:02:11;10.00;;;5.07;;
61590;SDS011;57639;52.410;-1.966;2023-06-26T19:05:17;7.65;;;4.20;;
61590;SDS011;57639;52.410;-1.966;2023-06-26T19:08:24;9.55;;;3.90;;
61590;SDS011;57639;52.410;-1.966;2023-06-26T19:11:35;4.68;;;1.95;;
61590;SDS011;57639;52.410;-1.966;2023-06-26T19:14:41;6.05;;;2.40;;
61590;SDS011;57639;52.410;-1.966;2023-06-26T19:17:52;4.70;;;2.40;;
61590;SDS011;57639;52.410;-1.966;2023-06-26T19:21:00;4.70;;;2.15;;
61590;SDS011;57639;52.410;-1.966;2023-06-26T19:24:06;6.25;;;2.50;;